Latest Weather Observations for Flinders Reef

IDQ60801

Issued at 12:32 pm EST Tuesday 23 December 2014 (issued every 30 minutes, with the page automatically refreshed every 10 minutes)

About weather observations | Map of weather stations | Latest weather observations for QLD | Other Formats
Station Details ID: 200783 Name: FLINDERS REEF Lat: -17.72 Lon: 148.45 Height: 2.6 m
Data from the previous 72 hours. | See also: Recent months at Flinders Reef
Date/Time
EST
Temp
°C
App
Temp
°C
Dew
Point
Rel
Hum
%
Delta-T
°C
Wind Press
QNH
hPa
Press
MSL
hPa
Rain
since 9 am
mm
Dir
 
Spd
km/h
Gust
km/h
Spd
kts
Gust
kts
23/12:30pm - - - - - SSE 28 33 15 18 1011.1 - -
23/12:24pm - - - - - ESE 22 26 12 14 1011.2 1011.1 -
23/12:00pm - - - - - ESE 20 24 11 13 1011.2 - -
23/11:30am - - - - - SE 20 24 11 13 1011.5 - -
23/11:24am - - - - - SE 20 - 11 - - 1011.4 -
23/11:00am - - - - - SE 22 26 12 14 1011.6 - -
23/10:30am - - - - - SE 24 30 13 16 1011.6 - -
23/10:24am - - - - - SE 24 - 13 - - 1011.6 -
23/10:00am - - - - - SE 24 30 13 16 1011.7 - -
23/09:30am - - - - - ESE 28 35 15 19 1011.6 - -
23/09:24am - - - - - SE 28 - 15 - - 1011.4 -
23/09:00am - - - - - ESE 28 32 15 17 1011.5 - -
23/08:30am - - - - - ESE 30 35 16 19 1011.4 - -
23/08:24am - - - - - SE 30 - 16 - - 1011.3 -
23/08:00am - - - - - SE 32 39 17 21 1011.3 - -
23/07:30am - - - - - SE 30 32 16 17 1011.0 - -
23/07:24am - - - - - SE 30 - 16 - - 1010.7 -
23/07:00am - - - - - SE 28 32 15 17 1010.9 - -
23/06:30am - - - - - SE 32 35 17 19 1010.7 - -
23/06:24am - - - - - SE 30 - 16 - - 1010.5 -
23/06:00am - - - - - SE 28 33 15 18 1010.4 - -
23/05:30am - - - - - SE 28 32 15 17 1010.2 - -
23/05:24am - - - - - SE 28 - 15 - - 1010.0 -
23/05:00am - - - - - SE 30 35 16 19 1010.0 - -
23/04:30am - - - - - SE 33 39 18 21 1009.5 - -
23/04:24am - - - - - SE 33 - 18 - - 1009.4 -
23/04:00am - - - - - SE 33 41 18 22 1009.4 - -
23/03:30am - - - - - SE 33 39 18 21 1009.5 - -
23/03:24am - - - - - SE 33 - 18 - - 1009.4 -
23/03:00am - - - - - SE 33 41 18 22 1009.4 - -
23/02:30am - - - - - ESE 35 41 19 22 1009.5 - -
23/02:24am - - - - - ESE 35 - 19 - - 1009.4 -
23/02:00am - - - - - ESE 35 41 19 22 1009.7 - -
23/01:30am - - - - - ESE 32 39 17 21 1010.3 - -
23/01:24am - - - - - E 28 - 15 - - 1010.3 -
23/01:00am - - - - - E 33 41 18 22 1010.5 - -
23/12:30am - - - - - E 32 37 17 20 1010.8 - -
23/12:24am - - - - - E 32 - 17 - - 1010.8 -
23/12:00am - - - - - ESE 39 46 21 25 1011.2 - -
 
Date/Time
EST
Temp
°C
App
Temp
°C
Dew
Point
Rel
Hum
%
Delta-T
°C
Wind Press
QNH
hPa
Press
MSL
hPa
Rain
since 9 am
mm
Dir
 
Spd
km/h
Gust
km/h
Spd
kts
Gust
kts
22/11:30pm - - - - - ESE 33 39 18 21 1011.7 - -
22/11:24pm - - - - - ESE 35 - 19 - - 1011.6 -
22/11:00pm - - - - - ESE 33 41 18 22 1011.9 - -
22/10:30pm - - - - - ESE 33 39 18 21 1012.1 - -
22/10:24pm - - - - - ESE 33 - 18 - - 1012.1 -
22/10:00pm - - - - - ESE 35 41 19 22 1012.2 - -
22/09:30pm - - - - - ESE 35 41 19 22 1012.1 - -
22/09:24pm - - - - - ESE 35 - 19 - - 1012.0 -
22/09:00pm - - - - - ESE 37 43 20 23 1012.1 - -
22/08:30pm - - - - - SE 39 43 21 23 1011.9 - -
22/08:24pm - - - - - SE 39 - 21 - - 1011.8 -
22/08:00pm - - - - - SE 41 46 22 25 1011.6 - -
22/07:30pm - - - - - SE 41 48 22 26 1011.6 - -
22/07:24pm - - - - - SE 39 - 21 - - 1011.5 -
22/07:20pm - - - - - SE 37 48 20 26 1011.6 - -
22/07:00pm - - - - - ESE 26 33 14 18 1011.7 - -
22/06:30pm - - - - - ESE 41 50 22 27 1011.2 - -
22/06:24pm - - - - - SE 39 - 21 - - 1011.0 -
22/06:00pm - - - - - SE 39 50 21 27 1010.9 - -
22/05:30pm - - - - - SE 32 35 17 19 1010.6 - -
22/05:24pm - - - - - SE 32 - 17 - - 1010.4 -
22/05:00pm - - - - - ESE 33 41 18 22 1010.3 - -
22/04:30pm - - - - - ESE 33 39 18 21 1010.3 - -
22/04:24pm - - - - - SE 33 - 18 - - 1010.2 -
22/04:00pm - - - - - ESE 37 43 20 23 1010.2 - -
22/03:30pm - - - - - SE 37 43 20 23 1010.2 - -
22/03:24pm - - - - - ESE 35 - 19 - - 1010.2 -
22/03:00pm - - - - - ESE 35 39 19 21 1010.4 - -
22/02:30pm - - - - - ESE 33 39 18 21 1010.9 - -
22/02:24pm - - - - - ESE 32 - 17 - - 1010.9 -
22/02:00pm - - - - - SE 33 39 18 21 1011.1 - -
22/01:30pm - - - - - ESE 35 41 19 22 1011.4 - -
22/01:24pm - - - - - ESE 35 - 19 - - 1011.3 -
22/01:00pm - - - - - ESE 32 37 17 20 1011.6 - -
22/12:30pm - - - - - ESE 30 35 16 19 1011.8 - -
22/12:24pm - - - - - ESE 28 - 15 - - 1011.8 -
22/12:00pm - - - - - ESE 30 35 16 19 1012.1 - -
22/11:30am - - - - - ESE 32 39 17 21 1012.2 - -
22/11:24am - - - - - ESE 32 - 17 - - 1012.1 -
22/11:00am - - - - - ESE 32 35 17 19 1012.3 - -
22/10:30am - - - - - ESE 30 35 16 19 1012.4 - -
22/10:24am - - - - - E 32 - 17 - - 1012.3 -
22/10:00am - - - - - ESE 35 39 19 21 1012.5 - -
22/09:30am - - - - - E 33 39 18 21 1012.2 - -
22/09:24am - - - - - E 33 - 18 - - 1012.0 -
22/09:00am - - - - - ESE 32 37 17 20 1012.2 - -
22/08:30am - - - - - ESE 32 39 17 21 1012.1 - -
22/08:24am - - - - - ESE 32 - 17 - - 1012.0 -
22/08:00am - - - - - ESE 35 43 19 23 1012.2 - -
22/07:30am - - - - - ESE 33 41 18 22 1012.1 - -
22/07:24am - - - - - ESE 35 - 19 - - 1011.9 -
22/07:00am - - - - - ESE 35 41 19 22 1011.7 - -
22/06:30am - - - - - ESE 33 39 18 21 1011.5 - -
22/06:24am - - - - - ESE 35 - 19 - - 1011.4 -
22/06:00am - - - - - ESE 35 43 19 23 1011.1 - -
22/05:30am - - - - - ESE 35 41 19 22 1010.5 - -
22/05:24am - - - - - ESE 35 - 19 - - 1010.3 -
22/05:00am - - - - - ESE 37 43 20 23 1010.2 - -
22/04:30am - - - - - E 39 44 21 24 1009.9 - -
22/04:24am - - - - - E 39 - 21 - - 1009.8 -
22/04:00am - - - - - E 39 43 21 23 1009.8 - -
22/03:30am - - - - - E 37 44 20 24 1009.8 - -
22/03:24am - - - - - E 37 - 20 - - 1009.6 -
22/03:00am - - - - - E 39 46 21 25 1009.8 - -
22/02:30am - - - - - ESE 39 44 21 24 1009.9 - -
22/02:24am - - - - - ESE 39 - 21 - - 1009.9 -
22/02:00am - - - - - ESE 39 46 21 25 1010.4 - -
22/01:30am - - - - - E 39 44 21 24 1010.7 - -
22/01:24am - - - - - E 39 - 21 - - 1010.7 -
22/01:00am - - - - - E 37 41 20 22 1011.1 - -
22/12:30am - - - - - E 37 43 20 23 1011.3 - -
22/12:24am - - - - - E 37 - 20 - - 1011.3 -
22/12:00am - - - - - E 35 44 19 24 1011.7 - -
 
Date/Time
EST
Temp
°C
App
Temp
°C
Dew
Point
Rel
Hum
%
Delta-T
°C
Wind Press
QNH
hPa
Press
MSL
hPa
Rain
since 9 am
mm
Dir
 
Spd
km/h
Gust
km/h
Spd
kts
Gust
kts
21/11:30pm - - - - - E 39 43 21 23 1012.1 - -
21/11:24pm - - - - - ESE 33 - 18 - - 1012.0 -
21/11:00pm - - - - - ESE 46 54 25 29 1012.2 - -
21/10:30pm - - - - - E 35 39 19 21 1012.2 - -
21/10:24pm - - - - - ESE 37 - 20 - - 1012.1 -
21/10:00pm - - - - - ESE 37 43 20 23 1012.1 - -
21/09:30pm - - - - - ESE 35 41 19 22 1011.9 - -
21/09:24pm - - - - - ESE 35 - 19 - - 1011.8 -
21/09:00pm - - - - - ESE 32 41 17 22 1011.9 - -
21/08:30pm - - - - - E 30 33 16 18 1011.7 - -
21/08:24pm - - - - - E 32 - 17 - - 1011.5 -
21/08:00pm - - - - - E 28 33 15 18 1011.4 - -
21/07:30pm - - - - - E 30 37 16 20 1011.2 - -
21/07:24pm - - - - - ESE 30 - 16 - - 1011.1 -
21/07:00pm - - - - - ESE 30 33 16 18 1011.0 - -
21/06:30pm - - - - - ESE 28 33 15 18 1010.9 - -
21/06:24pm - - - - - ESE 28 - 15 - - 1010.9 -
21/06:00pm - - - - - ESE 30 35 16 19 1010.8 - -
21/05:30pm - - - - - ESE 26 30 14 16 1010.6 - -
21/05:24pm - - - - - ESE 26 - 14 - - 1010.4 -
21/05:00pm - - - - - ESE 24 30 13 16 1010.6 - -
21/04:30pm - - - - - SE 26 32 14 17 1010.5 - -
21/04:24pm - - - - - ESE 24 - 13 - - 1010.3 -
21/04:00pm - - - - - ESE 20 26 11 14 1010.6 - -
21/03:30pm - - - - - ESE 20 24 11 13 1010.6 - -
21/03:24pm - - - - - ESE 20 - 11 - - 1010.5 -
21/03:00pm - - - - - ESE 20 24 11 13 1010.5 - -
21/02:30pm - - - - - ESE 22 26 12 14 1010.9 - -
21/02:24pm - - - - - ESE 22 - 12 - - 1010.9 -
21/02:00pm - - - - - ESE 22 26 12 14 1011.4 - -
21/01:30pm - - - - - E 20 26 11 14 1011.4 - -
21/01:24pm - - - - - E 20 - 11 - - 1011.4 -
21/01:00pm - - - - - ESE 20 22 11 12 1011.8 - -
21/12:30pm - - - - - ESE 22 24 12 13 1011.9 - -
21/12:24pm - - - - - SE 22 - 12 - - 1011.9 -
21/12:00pm - - - - - SE 24 28 13 15 1012.3 - -
21/11:30am - - - - - ESE 19 24 10 13 1012.6 - -
21/11:24am - - - - - ESE 20 - 11 - - 1012.4 -
21/11:00am - - - - - E 20 24 11 13 1012.7 - -
21/10:30am - - - - - E 19 20 10 11 1012.6 - -
21/10:24am - - - - - E 19 - 10 - - 1012.5 -
21/10:00am - - - - - E 19 22 10 12 1012.7 - -
21/09:30am - - - - - ENE 20 22 11 12 1012.6 - -
21/09:24am - - - - - ENE 20 - 11 - - 1012.4 -
21/09:00am - - - - - ENE 20 24 11 13 1012.6 - -
21/08:30am - - - - - E 22 26 12 14 1012.4 - -
21/08:24am - - - - - E 22 - 12 - - 1012.3 -
21/08:00am - - - - - E 24 28 13 15 1012.2 - -
21/07:30am - - - - - E 24 28 13 15 1012.2 - -
21/07:24am - - - - - E 22 - 12 - - 1012.0 -
21/07:00am - - - - - E 22 24 12 13 1012.0 - -
21/06:30am - - - - - E 20 26 11 14 1011.6 - -
21/06:24am - - - - - E 24 - 13 - - 1011.4 -
21/06:00am - - - - - E 24 28 13 15 1011.1 - -
21/05:30am - - - - - E 20 24 11 13 1010.6 - -
21/05:24am - - - - - E 19 - 10 - - 1010.5 -
21/05:00am - - - - - E 19 22 10 12 1010.3 - -
21/04:30am - - - - - E 20 24 11 13 1010.1 - -
21/04:24am - - - - - E 22 - 12 - - 1009.9 -
21/04:00am - - - - - E 22 26 12 14 1009.9 - -
21/03:30am - - - - - E 24 28 13 15 1009.8 - -
21/03:24am - - - - - E 26 - 14 - - 1009.5 -
21/03:00am - - - - - E 28 30 15 16 1009.6 - -
21/02:30am - - - - - E 28 32 15 17 1009.8 - -
21/02:24am - - - - - E 28 - 15 - - 1009.8 -
21/02:00am - - - - - E 28 30 15 16 1010.1 - -
21/01:30am - - - - - E 30 32 16 17 1010.3 - -
21/01:24am - - - - - E 30 - 16 - - 1010.3 -
21/01:00am - - - - - E 26 30 14 16 1010.6 - -
21/12:30am - - - - - E 28 33 15 18 1011.1 - -
21/12:24am - - - - - E 30 - 16 - - 1010.9 -
21/12:00am - - - - - E 30 32 16 17 1011.3 - -
 
Date/Time
EST
Temp
°C
App
Temp
°C
Dew
Point
Rel
Hum
%
Delta-T
°C
Wind Press
QNH
hPa
Press
MSL
hPa
Rain
since 9 am
mm
Dir
 
Spd
km/h
Gust
km/h
Spd
kts
Gust
kts
20/11:30pm - - - - - ESE 28 33 15 18 1011.7 - -
20/11:24pm - - - - - ESE 30 - 16 - - 1011.7 -
20/11:00pm - - - - - ESE 30 33 16 18 1011.9 - -
20/10:30pm - - - - - ESE 28 30 15 16 1011.9 - -
20/10:24pm - - - - - ESE 28 - 15 - - 1011.8 -
20/10:00pm - - - - - ESE 22 26 12 14 1011.9 - -
20/09:30pm - - - - - E 20 24 11 13 1011.6 - -
20/09:24pm - - - - - E 20 - 11 - - 1011.6 -
20/09:00pm - - - - - E 20 24 11 13 1011.6 - -
20/08:30pm - - - - - E 19 20 10 11 1011.4 - -
20/08:24pm - - - - - E 19 - 10 - - 1011.3 -
20/08:00pm - - - - - E 20 22 11 12 1011.1 - -
20/07:30pm - - - - - E 19 20 10 11 1011.0 - -
20/07:24pm - - - - - E 19 - 10 - - 1010.8 -
20/07:00pm - - - - - E 20 24 11 13 1010.4 - -
20/06:30pm - - - - - E 19 22 10 12 1010.0 - -
20/06:24pm - - - - - E 19 - 10 - - 1009.9 -
20/06:00pm - - - - - E 17 20 9 11 1009.6 - -
20/05:30pm - - - - - E 15 19 8 10 1009.6 - -
20/05:24pm - - - - - E 15 - 8 - - 1009.4 -
20/05:00pm - - - - - E 11 19 6 10 1009.2 - -
20/04:30pm - - - - - E 15 17 8 9 1009.2 - -
20/04:24pm - - - - - E 15 - 8 - - 1009.1 -
20/04:00pm - - - - - E 15 19 8 10 1009.2 - -
20/03:30pm - - - - - ESE 15 17 8 9 1009.2 - -
20/03:24pm - - - - - ESE 13 - 7 - - 1009.1 -
20/03:00pm - - - - - ESE 15 19 8 10 1009.5 - -
20/02:30pm - - - - - ESE 15 17 8 9 1009.7 - -
20/02:24pm - - - - - ESE 15 - 8 - - 1009.7 -
20/02:00pm - - - - - SSE 13 17 7 9 1009.9 - -
20/01:30pm - - - - - SSE 11 13 6 7 1010.3 - -
20/01:24pm - - - - - SE 11 - 6 - - 1010.3 -
20/01:00pm - - - - - E 11 15 6 8 1010.7 - -

Other Formats:

Comma delimited format used in spreadsheet applications
http://www.bom.gov.au/fwo/IDQ60801/IDQ60801.94290.axf

JavaScript Object Notation format (JSON) in row-major order
http://www.bom.gov.au/fwo/IDQ60801/IDQ60801.94290.json